createdAt,value
2023-04-28T00:00:42.314Z,1.54
2023-04-28T00:01:41.677Z,1.97
2023-04-28T00:02:41.726Z,1.26
2023-04-28T00:03:41.843Z,1.92
2023-04-28T00:04:41.918Z,1.76
2023-04-28T00:05:41.884Z,1.65
2023-04-28T00:06:41.893Z,1.71
2023-04-28T00:07:41.921Z,1.46
2023-04-28T00:08:41.936Z,1.58
2023-04-28T00:09:42.016Z,1.37
2023-04-28T00:10:42.057Z,1.70
2023-04-28T00:11:42.086Z,1.59
2023-04-28T00:12:42.208Z,1.84
2023-04-28T00:13:42.182Z,1.30
2023-04-28T00:14:42.242Z,1.43
2023-04-28T00:15:42.279Z,1.86
2023-04-28T00:16:42.552Z,1.52
2023-04-28T00:17:42.510Z,1.53
2023-04-28T00:18:42.432Z,1.69
2023-04-28T00:19:42.501Z,1.40
2023-04-28T00:20:42.522Z,1.65
2023-04-28T00:21:42.554Z,1.66
2023-04-28T00:22:42.611Z,1.88
2023-04-28T00:23:42.683Z,1.82
2023-04-28T00:24:42.704Z,1.66
2023-04-28T00:25:42.741Z,2.00
2023-04-28T00:26:42.776Z,1.45
2023-04-28T00:27:42.890Z,1.64
2023-04-28T00:28:42.881Z,1.54
2023-04-28T00:29:42.946Z,1.63
2023-04-28T00:30:42.987Z,1.74
2023-04-28T00:31:43.069Z,1.67
2023-04-28T00:32:43.058Z,1.41
2023-04-28T00:33:43.120Z,1.69
2023-04-28T00:34:43.145Z,1.65
2023-04-28T00:35:43.190Z,2.12
2023-04-28T00:36:43.217Z,1.94
2023-04-28T00:37:43.288Z,1.64
2023-04-28T00:38:43.354Z,1.66
2023-04-28T00:39:43.374Z,1.60
2023-04-28T00:40:43.449Z,1.42
2023-04-28T00:41:43.474Z,1.80
2023-04-28T00:42:43.505Z,1.82
2023-04-28T00:43:43.577Z,1.50
2023-04-28T00:44:43.625Z,1.25
2023-04-28T00:45:43.701Z,1.76
2023-04-28T00:46:43.702Z,1.58
2023-04-28T00:47:43.799Z,1.96
2023-04-28T00:48:43.802Z,1.92
2023-04-28T00:49:43.871Z,1.67
2023-04-28T00:50:43.936Z,1.42
2023-04-28T00:51:44.001Z,1.75
2023-04-28T00:52:44.003Z,1.37
2023-04-28T00:53:44.069Z,1.54
2023-04-28T00:54:44.125Z,1.72
2023-04-28T00:55:44.185Z,1.78
2023-04-28T00:56:44.200Z,1.56
2023-04-28T00:57:44.276Z,1.41
2023-04-28T00:58:44.304Z,1.96
2023-04-28T00:59:44.335Z,1.31
2023-04-28T01:00:44.428Z,1.50
2023-04-28T01:01:44.579Z,1.76
2023-04-28T01:02:44.670Z,2.00
2023-04-28T01:03:44.641Z,1.76
2023-04-28T01:04:44.714Z,1.75
2023-04-28T01:05:44.637Z,1.66
2023-04-28T01:06:44.679Z,1.44
2023-04-28T01:07:44.725Z,1.50
2023-04-28T01:08:44.791Z,1.72
2023-04-28T01:09:44.793Z,1.53
2023-04-28T01:10:44.867Z,1.73
2023-04-28T01:11:44.942Z,1.45
2023-04-28T01:12:44.932Z,1.62
2023-04-28T01:13:44.978Z,1.32
2023-04-28T01:14:44.999Z,1.64
2023-04-28T01:15:45.059Z,1.14
2023-04-28T01:16:45.207Z,1.55
2023-04-28T01:17:45.188Z,1.70
2023-04-28T01:18:45.185Z,1.82
2023-04-28T01:19:45.210Z,1.48
2023-04-28T01:20:45.254Z,1.78
2023-04-28T01:21:45.306Z,1.14
2023-04-28T01:22:45.371Z,1.52
2023-04-28T01:23:45.410Z,1.73
2023-04-28T01:24:45.435Z,1.43
2023-04-28T01:25:45.534Z,1.39
2023-04-28T01:26:45.547Z,1.66
2023-04-28T01:27:45.595Z,1.64
2023-04-28T01:28:45.641Z,1.64
2023-04-28T01:29:45.685Z,2.02
2023-04-28T01:30:45.725Z,1.61
2023-04-28T01:31:45.860Z,1.37
2023-04-28T01:32:45.873Z,1.59
2023-04-28T01:33:45.856Z,1.51
2023-04-28T01:34:45.898Z,1.34
2023-04-28T01:35:45.997Z,1.68
2023-04-28T01:36:46.033Z,1.44
2023-04-28T01:37:46.095Z,1.37
2023-04-28T01:38:46.136Z,1.35
2023-04-28T01:39:46.152Z,1.50
2023-04-28T01:40:46.315Z,1.67
2023-04-28T01:41:46.298Z,1.61
2023-04-28T01:42:46.330Z,1.59
2023-04-28T01:43:46.372Z,1.69
2023-04-28T01:44:46.422Z,1.52
2023-04-28T01:45:46.452Z,1.51
2023-04-28T01:46:46.515Z,1.65
2023-04-28T01:47:46.642Z,1.67
2023-04-28T01:48:46.596Z,1.61
2023-04-28T01:49:46.622Z,1.22
2023-04-28T01:50:46.695Z,1.72
2023-04-28T01:51:46.761Z,1.39
2023-04-28T01:52:46.766Z,1.74
2023-04-28T01:53:46.845Z,1.70
2023-04-28T01:54:46.864Z,1.67
2023-04-28T01:55:46.936Z,1.53
2023-04-28T01:56:47.010Z,1.85
2023-04-28T01:57:47.071Z,1.79
2023-04-28T01:58:47.100Z,1.41
2023-04-28T01:59:47.133Z,1.67
2023-04-28T02:00:47.181Z,1.44
2023-04-28T02:01:47.295Z,1.53
2023-04-28T02:02:47.336Z,1.69
2023-04-28T02:03:47.472Z,1.43
2023-04-28T02:04:47.442Z,1.46
2023-04-28T02:05:47.444Z,1.37
2023-04-28T02:06:47.877Z,1.49
2023-04-28T02:07:47.514Z,1.54
2023-04-28T02:08:47.577Z,1.10
2023-04-28T02:09:47.648Z,1.41
2023-04-28T02:10:47.673Z,1.91
2023-04-28T02:11:47.750Z,1.47
2023-04-28T02:12:47.763Z,1.51
2023-04-28T02:13:47.862Z,1.33
2023-04-28T02:14:47.889Z,1.34
2023-04-28T02:15:47.935Z,1.55
2023-04-28T02:16:48.053Z,1.56
2023-04-28T02:17:48.075Z,1.70
2023-04-28T02:18:48.079Z,2.04
2023-04-28T02:19:48.143Z,1.67
2023-04-28T02:20:48.214Z,1.46
2023-04-28T02:21:48.251Z,1.54
2023-04-28T02:22:48.277Z,1.46
2023-04-28T02:23:48.341Z,1.21
2023-04-28T02:24:48.401Z,1.89
2023-04-28T02:25:48.471Z,1.50
2023-04-28T02:26:48.482Z,1.24
2023-04-28T02:27:48.550Z,1.77
2023-04-28T02:28:48.568Z,1.58
2023-04-28T02:29:48.642Z,1.52
2023-04-28T02:30:48.712Z,1.66
2023-04-28T02:31:48.750Z,1.56
2023-04-28T02:32:48.824Z,1.32
2023-04-28T02:33:48.833Z,1.71
2023-04-28T02:34:48.876Z,1.50
2023-04-28T02:35:48.969Z,1.53
2023-04-28T02:36:48.989Z,1.61
2023-04-28T02:37:49.042Z,1.56
2023-04-28T02:38:49.113Z,2.24
2023-04-28T02:39:49.150Z,1.19
2023-04-28T02:40:49.201Z,1.34
2023-04-28T02:41:49.239Z,1.55
2023-04-28T02:42:49.294Z,1.76
2023-04-28T02:43:49.357Z,1.41
2023-04-28T02:44:49.445Z,1.26
2023-04-28T02:45:49.509Z,1.51
2023-04-28T02:46:49.526Z,1.24
2023-04-28T02:47:49.666Z,1.61
2023-04-28T02:48:49.658Z,1.58
2023-04-28T02:49:49.672Z,1.67
2023-04-28T02:50:49.762Z,1.29
2023-04-28T02:51:49.764Z,1.19
2023-04-28T02:52:49.831Z,1.40
2023-04-28T02:53:49.900Z,1.53
2023-04-28T02:54:49.962Z,1.00
2023-04-28T02:55:50.862Z,1.72
2023-04-28T02:56:50.081Z,1.21
2023-04-28T02:57:50.079Z,1.51
2023-04-28T02:58:50.141Z,1.51
2023-04-28T02:59:50.171Z,1.38
2023-04-28T03:00:50.375Z,1.27
2023-04-28T03:01:50.306Z,1.84
2023-04-28T03:02:50.425Z,1.60
2023-04-28T03:03:50.472Z,1.93
2023-04-28T03:04:50.514Z,1.67
2023-04-28T03:05:50.541Z,1.80
2023-04-28T03:06:50.549Z,1.09
2023-04-28T03:07:50.637Z,1.64
2023-04-28T03:08:50.643Z,1.69
2023-04-28T03:09:50.701Z,1.35
2023-04-28T03:10:50.785Z,1.20
2023-04-28T03:11:50.786Z,1.26
2023-04-28T03:12:50.852Z,1.51
2023-04-28T03:13:50.891Z,1.26
2023-04-28T03:14:50.946Z,1.45
2023-04-28T03:15:51.100Z,1.24
2023-04-28T03:16:51.125Z,1.39
2023-04-28T03:17:51.124Z,1.42
2023-04-28T03:18:51.145Z,1.33
2023-04-28T03:19:51.202Z,1.45
2023-04-28T03:20:51.252Z,1.36
2023-04-28T03:21:51.339Z,1.43
2023-04-28T03:22:51.345Z,1.41
2023-04-28T03:23:51.410Z,1.66
2023-04-28T03:24:51.490Z,1.82
2023-04-28T03:25:51.505Z,1.46
2023-04-28T03:26:51.589Z,1.29
2023-04-28T03:27:51.631Z,1.28
2023-04-28T03:28:51.693Z,1.32
2023-04-28T03:29:51.720Z,1.38
2023-04-28T03:30:51.762Z,1.33
2023-04-28T03:31:51.917Z,1.49
2023-04-28T03:32:51.922Z,1.80
2023-04-28T03:33:51.930Z,1.33
2023-04-28T03:34:52.001Z,1.09
2023-04-28T03:35:52.103Z,1.32
2023-04-28T03:36:52.084Z,1.52
2023-04-28T03:37:52.125Z,1.41
2023-04-28T03:38:52.197Z,2.14
2023-04-28T03:39:52.244Z,1.46
2023-04-28T03:40:52.334Z,1.33
2023-04-28T03:41:52.365Z,1.77
2023-04-28T03:42:52.405Z,1.18
2023-04-28T03:43:52.440Z,1.38
2023-04-28T03:44:52.474Z,1.77
2023-04-28T03:45:52.643Z,0.94
2023-04-28T03:46:52.640Z,1.78
2023-04-28T03:47:52.689Z,1.36
2023-04-28T03:48:52.686Z,1.90
2023-04-28T03:49:52.702Z,1.48
2023-04-28T03:50:52.751Z,1.09
2023-04-28T03:51:52.846Z,1.56
2023-04-28T03:52:52.911Z,1.34
2023-04-28T03:53:52.879Z,1.39
2023-04-28T03:54:52.953Z,1.35
2023-04-28T03:55:53.018Z,1.54
2023-04-28T03:56:53.048Z,1.77
2023-04-28T03:57:53.088Z,1.37
2023-04-28T03:58:53.137Z,1.11
2023-04-28T03:59:53.200Z,1.58
2023-04-28T04:00:53.237Z,1.12
2023-04-28T04:01:53.288Z,1.38
2023-04-28T04:02:53.511Z,1.35
2023-04-28T04:03:53.537Z,1.06
2023-04-28T04:04:53.681Z,1.48
2023-04-28T04:05:53.682Z,1.21
2023-04-28T04:06:53.534Z,1.23
2023-04-28T04:07:53.573Z,1.47
2023-04-28T04:08:53.624Z,1.49
2023-04-28T04:09:53.661Z,1.48
2023-04-28T04:10:53.719Z,1.66
2023-04-28T04:11:53.815Z,1.51
2023-04-28T04:12:53.800Z,1.51
2023-04-28T04:13:53.828Z,1.33
2023-04-28T04:14:53.894Z,1.56
2023-04-28T04:15:53.971Z,1.59
2023-04-28T04:16:54.014Z,1.57
2023-04-28T04:17:54.078Z,1.04
2023-04-28T04:18:54.093Z,2.38
2023-04-28T04:19:54.127Z,1.58
2023-04-28T04:20:54.195Z,1.35
2023-04-28T04:21:54.269Z,1.63
2023-04-28T04:22:54.291Z,1.84
2023-04-28T04:23:54.310Z,1.43
2023-04-28T04:24:54.386Z,1.60
2023-04-28T04:25:54.416Z,1.18
2023-04-28T04:26:54.485Z,1.40
2023-04-28T04:27:54.514Z,1.46
2023-04-28T04:28:54.560Z,1.51
2023-04-28T04:29:54.646Z,1.43
2023-04-28T04:30:54.687Z,1.59
2023-04-28T04:31:54.828Z,1.21
2023-04-28T04:32:54.762Z,1.34
2023-04-28T04:33:54.799Z,1.56
2023-04-28T04:34:54.869Z,1.17
2023-04-28T04:35:54.921Z,1.15
2023-04-28T04:36:54.977Z,1.41
2023-04-28T04:37:54.985Z,1.20
2023-04-28T04:38:55.049Z,1.41
2023-04-28T04:39:55.088Z,1.32
2023-04-28T04:40:55.135Z,1.40
2023-04-28T04:41:55.229Z,1.57
2023-04-28T04:42:55.232Z,1.44
2023-04-28T04:43:55.283Z,1.29
2023-04-28T04:44:55.354Z,1.20
2023-04-28T04:45:55.385Z,1.65
2023-04-28T04:46:55.461Z,1.40
2023-04-28T04:47:55.489Z,1.40
2023-04-28T04:48:55.522Z,1.25
2023-04-28T04:49:55.562Z,1.24
2023-04-28T04:50:55.609Z,1.55
2023-04-28T04:51:55.656Z,1.25
2023-04-28T04:52:55.700Z,1.42
2023-04-28T04:53:55.737Z,1.50
2023-04-28T04:54:55.805Z,1.36
2023-04-28T04:55:55.866Z,1.74
2023-04-28T04:56:55.907Z,1.52
2023-04-28T04:57:55.931Z,1.24
2023-04-28T04:58:55.982Z,1.48
2023-04-28T04:59:56.015Z,1.40
2023-04-28T05:00:56.070Z,1.32
2023-04-28T05:01:56.161Z,1.39
2023-04-28T05:02:56.347Z,1.83
2023-04-28T05:03:56.437Z,1.51
2023-04-28T05:05:08.264Z,1.33
2023-04-28T05:05:57.255Z,1.29
2023-04-28T05:06:56.263Z,1.16
2023-04-28T05:07:56.256Z,1.34
2023-04-28T05:08:56.275Z,1.38
2023-04-28T05:09:56.247Z,1.09
2023-04-28T05:10:56.201Z,1.31
2023-04-28T05:11:56.216Z,1.36
2023-04-28T05:12:56.241Z,1.30
2023-04-28T05:13:56.209Z,1.70
2023-04-28T05:14:56.284Z,1.37
2023-04-28T05:15:56.302Z,1.43
2023-04-28T05:16:56.459Z,1.49
2023-04-28T05:17:56.389Z,1.41
2023-04-28T05:18:56.448Z,1.09
2023-04-28T05:19:56.499Z,1.62
2023-04-28T05:20:56.536Z,1.58
2023-04-28T05:21:56.605Z,0.96
2023-04-28T05:22:56.654Z,1.15
2023-04-28T05:23:56.668Z,1.25
2023-04-28T05:24:56.731Z,1.62
2023-04-28T05:25:56.873Z,1.57
2023-04-28T05:26:56.910Z,1.40
2023-04-28T05:27:56.947Z,1.79
2023-04-28T05:28:56.903Z,2.01
2023-04-28T05:29:57.058Z,1.37
2023-04-28T05:30:57.032Z,1.51
2023-04-28T05:31:57.207Z,1.41
2023-04-28T05:32:57.278Z,1.34
2023-04-28T05:33:57.156Z,1.67
2023-04-28T05:34:57.308Z,1.52
2023-04-28T05:35:57.302Z,1.41
2023-04-28T05:36:57.300Z,1.57
2023-04-28T05:37:57.383Z,1.93
2023-04-28T05:38:57.402Z,1.85
2023-04-28T05:39:57.414Z,1.63
2023-04-28T05:40:57.473Z,1.76
2023-04-28T05:41:58.010Z,1.65
2023-04-28T05:42:57.463Z,2.16
2023-04-28T05:43:57.488Z,2.35
2023-04-28T05:44:57.505Z,2.72
2023-04-28T05:45:57.548Z,2.46
2023-04-28T05:46:57.630Z,2.39
2023-04-28T05:47:57.639Z,3.43
2023-04-28T05:48:57.599Z,2.21
2023-04-28T05:49:57.590Z,2.71
2023-04-28T05:50:57.608Z,2.70
2023-04-28T05:51:57.663Z,2.94
2023-04-28T05:52:57.644Z,2.97
2023-04-28T05:53:57.656Z,2.77
2023-04-28T05:54:57.680Z,3.07
2023-04-28T05:55:57.729Z,3.44
2023-04-28T05:56:59.105Z,2.88
2023-04-28T05:57:57.686Z,2.86
2023-04-28T05:58:57.698Z,2.67
2023-04-28T05:59:57.885Z,3.29
2023-04-28T06:00:57.688Z,2.73
2023-04-28T06:01:57.738Z,2.96
2023-04-28T06:02:58.010Z,3.35
2023-04-28T06:03:57.985Z,3.32
2023-04-28T06:04:57.937Z,3.39
2023-04-28T06:05:57.692Z,3.28
2023-04-28T06:06:57.651Z,3.13
2023-04-28T06:07:57.628Z,2.76
2023-04-28T06:08:57.606Z,3.15
2023-04-28T06:09:57.595Z,3.31
2023-04-28T06:10:57.591Z,2.87
2023-04-28T06:11:57.598Z,2.35
2023-04-28T06:12:57.605Z,3.28
2023-04-28T06:13:57.588Z,3.44
2023-04-28T06:14:57.642Z,2.88
2023-04-28T06:15:57.597Z,3.12
2023-04-28T06:16:57.583Z,2.99
2023-04-28T06:17:57.662Z,3.01
2023-04-28T06:18:57.549Z,3.12
2023-04-28T06:19:57.525Z,2.95
2023-04-28T06:20:57.568Z,2.88
2023-04-28T06:21:57.520Z,3.55
2023-04-28T06:22:57.540Z,3.32
2023-04-28T06:23:57.507Z,3.66
2023-04-28T06:24:57.541Z,3.51
2023-04-28T06:25:57.500Z,3.34
2023-04-28T06:26:57.507Z,3.26
2023-04-28T06:27:57.492Z,3.48
2023-04-28T06:28:57.499Z,4.09
2023-04-28T06:29:57.534Z,4.93
2023-04-28T06:30:57.511Z,3.19
2023-04-28T06:31:57.536Z,3.33
2023-04-28T06:32:57.517Z,3.21
2023-04-28T06:33:57.508Z,3.57
2023-04-28T06:34:58.621Z,3.52
2023-04-28T06:35:57.487Z,3.60
2023-04-28T06:36:57.444Z,2.88
2023-04-28T06:37:57.461Z,3.15
2023-04-28T06:38:57.466Z,3.11
2023-04-28T06:39:57.498Z,3.56
2023-04-28T06:40:57.627Z,3.78
2023-04-28T06:41:57.450Z,3.12
2023-04-28T06:42:57.418Z,3.52
2023-04-28T06:43:57.417Z,2.78
2023-04-28T06:44:57.545Z,4.05
2023-04-28T06:45:57.440Z,3.69
2023-04-28T06:46:57.476Z,3.48
2023-04-28T06:47:57.449Z,3.38
2023-04-28T06:48:57.418Z,3.04
2023-04-28T06:49:57.399Z,3.53
2023-04-28T06:50:57.359Z,4.28
2023-04-28T06:51:57.354Z,3.42
2023-04-28T06:52:57.383Z,3.00
2023-04-28T06:53:57.370Z,3.82
2023-04-28T06:54:57.381Z,3.37
2023-04-28T06:55:57.366Z,2.96
2023-04-28T06:56:57.345Z,3.06
2023-04-28T06:57:57.482Z,2.67
2023-04-28T06:58:57.389Z,3.20
2023-04-28T06:59:57.323Z,2.70
2023-04-28T07:00:57.395Z,2.80
2023-04-28T07:01:57.383Z,4.08
2023-04-28T07:02:57.419Z,3.21
2023-04-28T07:03:57.379Z,3.02
2023-04-28T07:04:57.274Z,3.56
2023-04-28T07:05:57.301Z,3.92
2023-04-28T07:06:57.439Z,3.20
2023-04-28T07:07:57.291Z,3.48
2023-04-28T07:08:57.309Z,3.42
2023-04-28T07:09:57.399Z,3.65
2023-04-28T07:10:57.253Z,3.43
2023-04-28T07:11:57.272Z,3.13
2023-04-28T07:12:57.244Z,3.17
2023-04-28T07:13:57.206Z,3.16
2023-04-28T07:14:57.332Z,2.98
2023-04-28T07:15:57.256Z,3.46
2023-04-28T07:16:57.227Z,3.25
2023-04-28T07:17:57.211Z,2.91
2023-04-28T07:18:57.381Z,3.02
2023-04-28T07:19:57.231Z,2.88
2023-04-28T07:20:57.192Z,3.42
2023-04-28T07:21:57.193Z,3.06
2023-04-28T07:22:57.284Z,2.73
2023-04-28T07:23:57.290Z,3.13
2023-04-28T07:24:57.173Z,3.51
2023-04-28T07:25:57.134Z,3.26
2023-04-28T07:26:57.289Z,3.34
2023-04-28T07:27:57.164Z,2.98
2023-04-28T07:28:57.140Z,4.07
2023-04-28T07:29:57.203Z,3.05
2023-04-28T07:30:57.176Z,2.77
2023-04-28T07:31:58.465Z,3.15
2023-04-28T07:32:57.509Z,3.53
2023-04-28T07:33:57.233Z,3.26
2023-04-28T07:34:57.193Z,4.07
2023-04-28T07:35:57.264Z,3.64
2023-04-28T07:36:57.234Z,4.02
2023-04-28T07:37:57.247Z,3.87
2023-04-28T07:38:57.277Z,4.62
2023-04-28T07:39:57.316Z,4.23
2023-04-28T07:40:57.371Z,3.92
2023-04-28T07:41:57.339Z,4.05
2023-04-28T07:42:57.368Z,4.24
2023-04-28T07:43:57.365Z,3.60
2023-04-28T07:44:57.339Z,5.18
2023-04-28T07:45:57.483Z,3.63
2023-04-28T07:46:57.525Z,4.18
2023-04-28T07:47:57.484Z,3.94
2023-04-28T07:48:57.459Z,3.97
2023-04-28T07:49:57.474Z,3.52
2023-04-28T07:50:57.547Z,4.30
2023-04-28T07:51:57.515Z,4.32
2023-04-28T07:52:57.976Z,4.41
2023-04-28T07:53:57.683Z,4.86
2023-04-28T07:54:57.556Z,3.84
2023-04-28T07:55:57.623Z,5.43
2023-04-28T07:56:57.703Z,4.12
2023-04-28T07:57:57.682Z,4.00
2023-04-28T07:58:57.741Z,4.28
2023-04-28T07:59:57.748Z,3.68
2023-04-28T08:00:57.842Z,3.26
2023-04-28T08:01:57.904Z,3.94
2023-04-28T08:02:58.104Z,4.57
2023-04-28T08:03:58.119Z,4.43
2023-04-28T08:04:58.149Z,4.97
2023-04-28T08:05:58.155Z,4.37
2023-04-28T08:06:58.090Z,4.46
2023-04-28T08:07:58.163Z,3.40
2023-04-28T08:08:58.227Z,4.21
2023-04-28T08:09:58.252Z,4.39
2023-04-28T08:10:58.370Z,4.32
2023-04-28T08:11:58.383Z,3.57
2023-04-28T08:12:59.023Z,3.73
2023-04-28T08:13:58.518Z,3.97
2023-04-28T08:14:58.630Z,4.57
2023-04-28T08:15:58.740Z,4.23
2023-04-28T08:16:58.804Z,3.96
2023-04-28T08:17:58.817Z,4.20
2023-04-28T08:18:58.961Z,4.66
2023-04-28T08:19:58.860Z,3.86
2023-04-28T08:20:58.975Z,4.92
2023-04-28T08:21:58.973Z,4.86
2023-04-28T08:22:59.529Z,5.11
2023-04-28T08:23:59.032Z,4.28
2023-04-28T08:24:59.130Z,5.07
2023-04-28T08:25:59.257Z,5.63
2023-04-28T08:26:59.178Z,5.01
2023-04-28T08:27:59.492Z,5.04
2023-04-28T08:28:59.274Z,5.17
2023-04-28T08:29:59.335Z,5.46
2023-04-28T08:30:59.398Z,5.39
2023-04-28T08:31:59.427Z,6.60
2023-04-28T08:32:59.465Z,5.31
2023-04-28T08:33:59.588Z,5.05
2023-04-28T08:34:59.527Z,5.30
2023-04-28T08:35:59.613Z,6.02
2023-04-28T08:36:59.664Z,4.13
2023-04-28T08:37:59.716Z,4.10
2023-04-28T08:38:59.721Z,5.09
2023-04-28T08:39:59.774Z,4.26
2023-04-28T08:40:59.809Z,4.42
2023-04-28T08:41:59.866Z,4.46
2023-04-28T08:42:59.954Z,3.95
2023-04-28T08:44:00.011Z,3.88
2023-04-28T08:45:00.089Z,3.57
2023-04-28T08:46:00.181Z,3.68
2023-04-28T08:47:00.335Z,3.86
2023-04-28T08:48:00.281Z,3.24
2023-04-28T08:49:00.307Z,4.26
2023-04-28T08:50:00.403Z,3.45
2023-04-28T08:51:00.481Z,2.76
2023-04-28T08:52:00.560Z,4.23
2023-04-28T08:53:00.594Z,3.93
2023-04-28T08:55:00.633Z,3.77
2023-04-28T08:56:00.592Z,3.65
2023-04-28T08:57:00.602Z,4.31
2023-04-28T08:58:00.620Z,3.87
2023-04-28T08:59:00.597Z,3.74
2023-04-28T09:00:00.562Z,3.67
2023-04-28T09:01:00.560Z,3.76
2023-04-28T09:02:00.670Z,3.71
2023-04-28T09:03:00.749Z,3.35
2023-04-28T09:04:00.643Z,4.45
2023-04-28T09:05:00.820Z,3.12
2023-04-28T09:06:00.529Z,4.22
2023-04-28T09:07:00.548Z,4.31
2023-04-28T09:08:00.500Z,3.85
2023-04-28T09:09:00.500Z,4.11
2023-04-28T09:10:00.603Z,3.52
2023-04-28T09:11:00.520Z,3.69
2023-04-28T09:12:00.486Z,3.42
2023-04-28T09:13:00.545Z,3.78
2023-04-28T09:14:00.483Z,3.77
2023-04-28T09:15:00.471Z,3.62
2023-04-28T09:16:00.485Z,3.43
2023-04-28T09:17:00.462Z,3.70
2023-04-28T09:18:00.509Z,3.61
2023-04-28T09:19:00.456Z,3.30
2023-04-28T09:20:00.453Z,2.78
2023-04-28T09:21:01.968Z,3.39
2023-04-28T09:22:05.579Z,3.33
2023-04-28T09:23:01.424Z,3.92
2023-04-28T09:24:00.441Z,3.48
2023-04-28T09:25:00.407Z,3.43
2023-04-28T09:26:00.489Z,3.31
2023-04-28T09:27:00.393Z,3.66
2023-04-28T09:28:00.377Z,3.35
2023-04-28T09:29:00.383Z,3.28
2023-04-28T09:30:00.369Z,3.42
2023-04-28T09:31:00.392Z,3.41
2023-04-28T09:32:00.460Z,3.91
2023-04-28T09:33:00.526Z,3.52
2023-04-28T09:34:01.042Z,5.04
2023-04-28T09:35:00.625Z,4.66
2023-04-28T09:36:00.815Z,5.63
2023-04-28T09:37:00.719Z,5.21
2023-04-28T09:38:00.834Z,4.60
2023-04-28T09:39:01.584Z,5.39
2023-04-28T09:40:00.987Z,4.79
2023-04-28T09:41:01.173Z,4.20
2023-04-28T09:42:01.013Z,4.37
2023-04-28T09:43:08.919Z,4.52
2023-04-28T09:44:02.074Z,5.33
2023-04-28T09:45:01.048Z,4.81
2023-04-28T09:46:01.166Z,4.23
2023-04-28T09:47:01.068Z,3.99
2023-04-28T09:48:01.203Z,4.43
2023-04-28T09:49:01.052Z,2.86
2023-04-28T09:50:01.073Z,3.47
2023-04-28T09:51:01.070Z,2.59
2023-04-28T09:52:01.053Z,3.58
2023-04-28T09:53:01.033Z,3.46
2023-04-28T09:54:01.004Z,3.19
2023-04-28T09:55:00.991Z,3.83
2023-04-28T09:56:01.037Z,3.49
2023-04-28T09:57:01.046Z,3.94
2023-04-28T09:58:01.116Z,3.22
2023-04-28T09:59:01.138Z,3.43
2023-04-28T10:00:01.203Z,2.93
2023-04-28T10:01:01.353Z,4.18
2023-04-28T10:02:08.926Z,2.62
2023-04-28T10:03:02.592Z,3.28
2023-04-28T10:04:01.444Z,3.47
2023-04-28T10:05:01.491Z,3.72
2023-04-28T10:06:01.297Z,3.13
2023-04-28T10:07:01.374Z,3.95
2023-04-28T10:08:01.300Z,3.72
2023-04-28T10:09:01.641Z,3.00
2023-04-28T10:10:01.274Z,4.88
2023-04-28T10:11:01.284Z,3.30
2023-04-28T10:12:01.385Z,3.79
2023-04-28T10:13:01.393Z,3.43
2023-04-28T10:14:01.452Z,3.42
2023-04-28T10:15:01.528Z,3.35
2023-04-28T10:16:01.664Z,4.05
2023-04-28T10:17:01.655Z,4.33
2023-04-28T10:18:01.714Z,4.02
2023-04-28T10:19:01.816Z,3.46
2023-04-28T10:20:01.849Z,4.09
2023-04-28T10:21:01.906Z,4.06
2023-04-28T10:22:01.969Z,3.89
2023-04-28T10:23:02.086Z,3.87
2023-04-28T10:24:02.104Z,3.57
2023-04-28T10:25:02.228Z,3.40
2023-04-28T10:26:02.242Z,3.29
2023-04-28T10:27:02.245Z,3.59
2023-04-28T10:28:02.293Z,4.16
2023-04-28T10:29:02.574Z,3.85
2023-04-28T10:30:03.031Z,4.33
2023-04-28T10:31:02.567Z,3.89
2023-04-28T10:32:02.582Z,4.14
2023-04-28T10:33:02.696Z,3.94
2023-04-28T10:34:02.712Z,2.61
2023-04-28T10:35:02.770Z,3.25
2023-04-28T10:36:02.796Z,3.69
2023-04-28T10:37:02.886Z,3.95
2023-04-28T10:38:02.910Z,3.36
2023-04-28T10:39:02.911Z,2.94
2023-04-28T10:40:02.961Z,3.42
2023-04-28T10:41:02.931Z,3.75
2023-04-28T10:42:02.894Z,3.00
2023-04-28T10:43:02.959Z,3.45
2023-04-28T10:44:02.937Z,3.28
2023-04-28T10:45:02.959Z,3.23
2023-04-28T10:46:03.023Z,2.93
2023-04-28T10:47:02.996Z,3.37
2023-04-28T10:48:03.043Z,3.30
2023-04-28T10:49:02.980Z,3.75
2023-04-28T10:50:02.962Z,3.00
2023-04-28T10:51:02.992Z,3.46
2023-04-28T10:52:02.951Z,3.41
2023-04-28T10:53:02.996Z,3.27
2023-04-28T10:54:02.981Z,3.49
2023-04-28T10:55:07.052Z,3.29
2023-04-28T10:56:03.995Z,3.54
2023-04-28T10:57:02.993Z,3.16
2023-04-28T10:58:02.977Z,2.95
2023-04-28T10:59:02.976Z,2.63
2023-04-28T11:00:02.983Z,2.47
2023-04-28T11:01:02.965Z,2.70
2023-04-28T11:02:03.075Z,2.69
2023-04-28T11:03:03.132Z,2.47
2023-04-28T11:04:03.355Z,2.90
2023-04-28T11:05:03.006Z,2.84
2023-04-28T11:06:02.918Z,2.70
2023-04-28T11:07:03.022Z,2.80
2023-04-28T11:08:02.997Z,2.85
2023-04-28T11:09:02.994Z,3.76
2023-04-28T11:10:02.878Z,2.73
2023-04-28T11:11:02.911Z,2.76
2023-04-28T11:12:02.891Z,3.38
2023-04-28T11:13:02.884Z,3.33
2023-04-28T11:14:02.905Z,2.78
2023-04-28T11:15:02.858Z,3.24
2023-04-28T11:16:02.955Z,2.80
2023-04-28T11:17:02.914Z,3.25
2023-04-28T11:18:02.902Z,3.15
2023-04-28T11:19:03.095Z,2.56
2023-04-28T11:20:02.963Z,2.24
2023-04-28T11:21:02.863Z,3.42
2023-04-28T11:22:03.020Z,2.92
2023-04-28T11:23:02.907Z,1.86
2023-04-28T11:24:03.076Z,2.69
2023-04-28T11:25:03.064Z,2.78
2023-04-28T11:26:02.965Z,2.35
2023-04-28T11:27:02.977Z,2.65
2023-04-28T11:28:03.033Z,2.57
2023-04-28T11:29:03.021Z,2.76
2023-04-28T11:30:03.051Z,2.73
2023-04-28T11:31:03.050Z,2.44
2023-04-28T11:32:03.181Z,3.21
2023-04-28T11:33:03.120Z,2.83
2023-04-28T11:34:03.117Z,2.92
2023-04-28T11:35:03.144Z,2.65
2023-04-28T11:36:03.237Z,2.69
2023-04-28T11:37:03.226Z,2.53
2023-04-28T11:38:03.222Z,3.18
2023-04-28T11:39:03.258Z,2.69
2023-04-28T11:40:03.273Z,2.71
2023-04-28T11:41:03.299Z,2.05
2023-04-28T11:42:03.304Z,2.38
2023-04-28T11:43:03.340Z,2.22
2023-04-28T11:44:03.399Z,2.25
2023-04-28T11:45:03.369Z,2.43
2023-04-28T11:46:03.511Z,2.39
2023-04-28T11:47:03.763Z,2.29
2023-04-28T11:48:03.497Z,2.20
2023-04-28T11:49:03.498Z,2.59
2023-04-28T11:50:03.619Z,1.94
2023-04-28T11:51:03.586Z,2.49
2023-04-28T11:52:03.592Z,2.88
2023-04-28T11:53:03.645Z,2.10
2023-04-28T11:54:03.724Z,2.13
2023-04-28T11:55:03.721Z,2.13
2023-04-28T11:56:03.791Z,2.28
2023-04-28T11:57:03.805Z,1.89
2023-04-28T11:58:03.877Z,2.62
2023-04-28T11:59:04.148Z,2.06
2023-04-28T12:00:03.927Z,2.06
2023-04-28T12:01:03.990Z,2.05
2023-04-28T12:02:04.168Z,2.17
2023-04-28T12:03:04.184Z,2.06
2023-04-28T12:04:04.293Z,2.21
2023-04-28T12:05:04.217Z,1.83
2023-04-28T12:06:04.306Z,2.11
2023-04-28T12:07:04.302Z,1.54
2023-04-28T12:08:04.302Z,2.42
2023-04-28T12:09:04.379Z,2.09
2023-04-28T12:10:04.437Z,1.92
2023-04-28T12:11:04.584Z,1.80
2023-04-28T12:12:04.563Z,2.02
2023-04-28T12:13:04.574Z,2.10
2023-04-28T12:14:04.630Z,1.77
2023-04-28T12:15:04.669Z,1.92
2023-04-28T12:16:04.752Z,2.56
2023-04-28T12:17:04.781Z,2.11
2023-04-28T12:18:04.891Z,1.98
2023-04-28T12:19:04.931Z,2.11
2023-04-28T12:20:04.969Z,1.85
2023-04-28T12:21:04.982Z,2.22
2023-04-28T12:22:05.046Z,2.14
2023-04-28T12:23:05.141Z,1.89
2023-04-28T12:24:05.174Z,1.64
2023-04-28T12:25:05.193Z,2.23
2023-04-28T12:26:05.258Z,1.87
2023-04-28T12:27:05.290Z,1.71
2023-04-28T12:28:05.374Z,2.18
2023-04-28T12:29:05.415Z,2.00
2023-04-28T12:30:05.438Z,1.90
2023-04-28T12:31:05.514Z,2.06
2023-04-28T12:32:05.549Z,2.02
2023-04-28T12:33:05.612Z,3.11
2023-04-28T12:34:05.789Z,2.19
2023-04-28T12:35:05.705Z,2.37
2023-04-28T12:36:05.829Z,2.02
2023-04-28T12:37:05.909Z,2.15
2023-04-28T12:38:05.913Z,1.77
2023-04-28T12:39:05.975Z,1.78
2023-04-28T12:40:06.032Z,2.14
2023-04-28T12:41:06.080Z,1.70
2023-04-28T12:42:06.122Z,1.60
2023-04-28T12:43:06.183Z,1.97
2023-04-28T12:44:06.284Z,1.89
2023-04-28T12:45:06.356Z,1.74
2023-04-28T12:46:06.411Z,1.73
2023-04-28T12:47:06.442Z,2.00
2023-04-28T12:48:06.533Z,2.35
2023-04-28T12:49:06.555Z,1.72
2023-04-28T12:50:06.682Z,2.01
2023-04-28T12:51:06.671Z,1.93
2023-04-28T12:52:06.803Z,2.22
2023-04-28T12:53:06.790Z,2.19
2023-04-28T12:54:06.875Z,1.80
2023-04-28T12:55:06.962Z,2.07
2023-04-28T12:56:06.960Z,1.76
2023-04-28T12:57:07.047Z,1.91
2023-04-28T12:58:07.082Z,1.91
2023-04-28T12:59:07.162Z,2.00
2023-04-28T13:00:07.287Z,1.90
2023-04-28T13:01:07.262Z,2.00
2023-04-28T13:02:07.476Z,2.05
2023-04-28T13:03:07.499Z,2.10
2023-04-28T13:04:07.763Z,2.08
2023-04-28T13:05:07.551Z,2.08
2023-04-28T13:06:07.616Z,2.02
2023-04-28T13:07:07.676Z,1.86
2023-04-28T13:08:07.763Z,1.57
2023-04-28T13:09:07.821Z,1.63
2023-04-28T13:10:07.891Z,1.91
2023-04-28T13:11:19.744Z,1.97
2023-04-28T13:12:08.943Z,1.74
2023-04-28T13:13:07.905Z,1.73
2023-04-28T13:14:07.912Z,2.31
2023-04-28T13:15:07.941Z,1.92
2023-04-28T13:16:07.955Z,2.10
2023-04-28T13:17:07.960Z,1.94
2023-04-28T13:18:07.947Z,1.93
2023-04-28T13:19:07.965Z,2.48
2023-04-28T13:20:07.979Z,2.07